Terminal Aerodrome Forecast
Issued by NWS

Home | Current Version | Previous Version | Text Only | Print | Product List | Glossary On
Versions: 1 2 3 4 5 6 7 8 9 10 11 12 13 14 15 16 17 18 19 20 21
000
FTUS43 KDVN 202200 AAB
TAFCID
TAF AMD
KCID 202213Z 2022/2118 23009KT P6SM VCSH SCT040 BKN080
     FM202300 28012G18KT P6SM SCT050
     FM210200 30011KT P6SM SKC=

USA.gov is the U.S. government's official web portal to all federal, state and local government web resources and services.